Time;durP1;ratioP1;P1;durP2;ratioP2;P2;SDS_P1;SDS_P2;PMS_P1;PMS_P2;Temp;Humidity;BMP_temperature;BMP_pressure;BME280_temperature;BME280_humidity;BME280_pressure;Samples;Min_cycle;Max_cycle;Signal;HPM_P1;HPM_P2
2022/12/02 00:01:40;;;;;;;0.63;0.63;;;;;;;;;;5084547;28;20039;-86
2022/12/02 00:04:26;;;;;;;0.30;0.22;;;;;;;;;;5065101;28;20064;-87
2022/12/02 00:06:53;;;;;;;0.50;0.50;;;;;;;;;;5059010;28;20059;-87
2022/12/02 00:09:22;;;;;;;0.20;0.10;;;;;;;;;;5057317;28;20044;-86
2022/12/02 00:11:49;;;;;;;0.43;0.43;;;;;;;;;;5061220;28;20040;-87
2022/12/02 00:14:23;;;;;;;0.20;0.10;;;;;;;;;;5049385;28;20546;-88
2022/12/02 00:16:49;;;;;;;0.20;0.10;;;;;;;;;;5067372;28;20497;-85
2022/12/02 00:19:16;;;;;;;0.28;0.20;;;;;;;;;;5065902;28;20046;-86
2022/12/02 00:21:41;;;;;;;0.28;0.20;;;;;;;;;;5060361;28;22174;-85
2022/12/02 00:24:08;;;;;;;0.20;0.10;;;;;;;;;;5055009;28;20044;-85
2022/12/02 00:26:34;;;;;;;0.68;0.68;;;;;;;;;;5075637;28;20177;-85
2022/12/02 00:29:00;;;;;;;0.20;0.10;;;;;;;;;;5046205;28;20568;-86
2022/12/02 00:31:26;;;;;;;0.20;0.10;;;;;;;;;;5059787;28;20042;-87
2022/12/02 00:33:53;;;;;;;0.20;0.10;;;;;;;;;;5067351;28;20127;-86
2022/12/02 00:36:19;;;;;;;0.20;0.10;;;;;;;;;;5067735;28;20052;-86
2022/12/02 00:38:45;;;;;;;0.20;0.10;;;;;;;;;;5092262;27;20670;-85
2022/12/02 00:41:11;;;;;;;1.10;1.10;;;;;;;;;;5066065;28;20040;-85
2022/12/02 00:46:32;;;;;;;0.20;0.10;;;;;;;;;;5053345;28;20048;-84
2022/12/02 00:49:08;;;;;;;0.30;0.30;;;;;;;;;;5020314;28;20127;-85
2022/12/02 00:51:35;;;;;;;0.20;0.10;;;;;;;;;;5055487;28;20187;-88
2022/12/02 00:54:02;;;;;;;0.20;0.10;;;;;;;;;;5011881;28;20516;-90
2022/12/02 00:56:28;;;;;;;0.20;0.10;;;;;;;;;;5020470;28;20131;-84
2022/12/02 00:58:54;;;;;;;0.20;0.10;;;;;;;;;;5024252;28;21223;-85
2022/12/02 01:01:20;;;;;;;0.20;0.10;;;;;;;;;;5047775;28;20120;-84
2022/12/02 01:03:46;;;;;;;0.73;0.50;;;;;;;;;;5057943;28;20564;-83
2022/12/02 01:06:12;;;;;;;0.20;0.10;;;;;;;;;;5022685;28;20060;-84
2022/12/02 01:08:38;;;;;;;0.40;0.40;;;;;;;;;;5024148;28;20044;-84
2022/12/02 01:11:04;;;;;;;0.20;0.10;;;;;;;;;;5035598;28;20040;-84
2022/12/02 01:13:30;;;;;;;0.20;0.10;;;;;;;;;;5051426;28;20075;-85
2022/12/02 01:15:57;;;;;;;0.20;0.10;;;;;;;;;;5043278;28;20059;-86
2022/12/02 01:18:23;;;;;;;0.20;0.10;;;;;;;;;;5043787;28;20526;-86
2022/12/02 01:20:49;;;;;;;0.20;0.10;;;;;;;;;;5037277;28;20051;-83
2022/12/02 01:23:15;;;;;;;0.20;0.10;;;;;;;;;;5012677;28;20033;-86
2022/12/02 01:25:41;;;;;;;0.20;0.10;;;;;;;;;;5016766;28;20104;-83
2022/12/02 01:28:08;;;;;;;0.20;0.10;;;;;;;;;;5019174;28;20056;-85
2022/12/02 01:30:34;;;;;;;0.20;0.10;;;;;;;;;;5013975;28;20072;-85
2022/12/02 01:33:00;;;;;;;0.20;0.20;;;;;;;;;;5021270;28;20521;-84
2022/12/02 01:35:26;;;;;;;0.30;0.30;;;;;;;;;;5037640;28;20044;-86
2022/12/02 01:37:52;;;;;;;0.20;0.10;;;;;;;;;;5030374;28;20407;-83
2022/12/02 01:40:19;;;;;;;0.20;0.10;;;;;;;;;;5023440;28;20500;-88
2022/12/02 01:42:45;;;;;;;0.20;0.10;;;;;;;;;;5037525;28;20040;-84
2022/12/02 01:45:12;;;;;;;0.40;0.35;;;;;;;;;;5024749;28;20067;-84
2022/12/02 01:47:38;;;;;;;0.45;0.30;;;;;;;;;;5036056;28;20041;-89
2022/12/02 01:50:05;;;;;;;0.20;0.10;;;;;;;;;;5034765;28;20040;-87
2022/12/02 01:52:31;;;;;;;0.20;0.10;;;;;;;;;;5028820;28;20083;-84
2022/12/02 01:54:58;;;;;;;0.60;0.60;;;;;;;;;;5015428;28;20032;-83
2022/12/02 01:57:28;;;;;;;0.20;0.20;;;;;;;;;;5020812;28;20039;-89
2022/12/02 01:59:54;;;;;;;0.20;0.10;;;;;;;;;;5039777;28;20063;-84
2022/12/02 02:02:31;;;;;;;0.20;0.10;;;;;;;;;;5021353;28;20595;-86
2022/12/02 02:05:01;;;;;;;0.20;0.10;;;;;;;;;;5022586;28;20332;-84
2022/12/02 02:07:28;;;;;;;0.20;0.10;;;;;;;;;;5052249;28;20350;-86
2022/12/02 02:09:54;;;;;;;0.20;0.10;;;;;;;;;;5016932;28;20033;-87
2022/12/02 02:12:21;;;;;;;0.20;0.10;;;;;;;;;;5038216;28;20407;-84
2022/12/02 02:14:47;;;;;;;0.20;0.10;;;;;;;;;;5036607;28;20383;-83
2022/12/02 02:17:14;;;;;;;0.25;0.25;;;;;;;;;;5016454;28;20040;-84
2022/12/02 02:19:42;;;;;;;0.30;0.30;;;;;;;;;;5040666;28;20272;-87
2022/12/02 02:22:11;;;;;;;0.20;0.10;;;;;;;;;;5017691;28;20037;-88
2022/12/02 02:24:37;;;;;;;0.20;0.10;;;;;;;;;;5025668;28;20048;-88
2022/12/02 02:27:03;;;;;;;0.20;0.10;;;;;;;;;;5029444;28;20033;-84
2022/12/02 02:29:29;;;;;;;0.20;0.10;;;;;;;;;;5039795;28;20183;-83
2022/12/02 02:31:55;;;;;;;0.52;0.38;;;;;;;;;;5043838;28;20040;-84
2022/12/02 02:34:22;;;;;;;0.20;0.10;;;;;;;;;;5052091;28;20045;-86
2022/12/02 02:36:48;;;;;;;0.20;0.10;;;;;;;;;;5047327;28;20040;-87
2022/12/02 02:39:14;;;;;;;0.20;0.10;;;;;;;;;;5028279;28;20698;-88
2022/12/02 02:41:40;;;;;;;0.20;0.10;;;;;;;;;;5039131;28;20067;-89
2022/12/02 02:44:06;;;;;;;0.20;0.10;;;;;;;;;;5015893;28;20387;-88
2022/12/02 02:46:32;;;;;;;0.47;0.40;;;;;;;;;;5044329;28;20044;-86
2022/12/02 02:48:58;;;;;;;0.20;0.10;;;;;;;;;;5020215;28;20048;-89
2022/12/02 02:51:24;;;;;;;0.20;0.10;;;;;;;;;;5047082;28;20044;-86
2022/12/02 02:53:51;;;;;;;0.20;0.20;;;;;;;;;;5012219;28;20122;-87
2022/12/02 02:56:17;;;;;;;0.22;0.20;;;;;;;;;;5047524;28;20092;-82
2022/12/02 02:58:43;;;;;;;0.20;0.10;;;;;;;;;;5052500;28;20037;-86
2022/12/02 03:01:12;;;;;;;0.20;0.10;;;;;;;;;;5014074;28;20036;-85
2022/12/02 03:03:40;;;;;;;0.20;0.10;;;;;;;;;;5014097;28;20040;-83
2022/12/02 03:06:07;;;;;;;0.20;0.10;;;;;;;;;;5039314;28;20476;-85
2022/12/02 03:08:34;;;;;;;0.45;0.13;;;;;;;;;;5026437;28;20040;-84
2022/12/02 03:11:01;;;;;;;0.30;0.30;;;;;;;;;;5038464;28;20068;-85
2022/12/02 03:13:28;;;;;;;0.20;0.10;;;;;;;;;;5037855;28;20071;-87
2022/12/02 03:15:54;;;;;;;0.20;0.10;;;;;;;;;;5039800;28;20079;-88
2022/12/02 03:18:20;;;;;;;0.20;0.10;;;;;;;;;;5034387;28;20051;-86
2022/12/02 03:20:47;;;;;;;0.20;0.10;;;;;;;;;;5050431;28;20036;-86
2022/12/02 03:23:13;;;;;;;0.35;0.28;;;;;;;;;;5041132;28;20033;-86
2022/12/02 03:25:39;;;;;;;0.20;0.10;;;;;;;;;;5034765;28;20036;-85
2022/12/02 03:28:05;;;;;;;1.60;1.50;;;;;;;;;;5019809;28;20036;-85
2022/12/02 03:30:31;;;;;;;0.20;0.10;;;;;;;;;;5020747;28;20037;-86
2022/12/02 03:32:58;;;;;;;0.20;0.20;;;;;;;;;;5051047;28;20410;-86
2022/12/02 03:35:25;;;;;;;0.57;0.57;;;;;;;;;;5041392;28;20693;-83
2022/12/02 03:37:51;;;;;;;0.20;0.10;;;;;;;;;;5020873;28;20075;-84
2022/12/02 03:40:17;;;;;;;0.20;0.10;;;;;;;;;;5036863;28;20118;-88
2022/12/02 03:42:43;;;;;;;0.20;0.10;;;;;;;;;;5054626;28;20455;-86
2022/12/02 03:45:10;;;;;;;0.40;0.40;;;;;;;;;;5022262;28;20051;-84
2022/12/02 03:47:36;;;;;;;0.20;0.10;;;;;;;;;;5021194;28;20110;-84
2022/12/02 03:50:03;;;;;;;0.22;0.20;;;;;;;;;;5038058;28;20535;-84
2022/12/02 03:52:29;;;;;;;0.38;0.38;;;;;;;;;;5052815;28;20036;-87
2022/12/02 03:54:55;;;;;;;0.20;0.20;;;;;;;;;;5042424;28;20074;-86
2022/12/02 03:57:22;;;;;;;0.20;0.10;;;;;;;;;;5022791;28;20040;-87
2022/12/02 03:59:48;;;;;;;0.20;0.10;;;;;;;;;;5044446;28;21821;-85
2022/12/02 04:02:14;;;;;;;0.20;0.10;;;;;;;;;;5026944;28;20041;-85
2022/12/02 04:04:40;;;;;;;0.20;0.10;;;;;;;;;;5043331;28;20492;-83
2022/12/02 04:07:06;;;;;;;0.20;0.10;;;;;;;;;;5034768;28;20036;-88
2022/12/02 04:09:32;;;;;;;0.20;0.10;;;;;;;;;;5044899;28;20044;-85
2022/12/02 04:11:58;;;;;;;0.20;0.10;;;;;;;;;;5060274;28;20333;-88
2022/12/02 04:14:24;;;;;;;0.20;0.10;;;;;;;;;;5046242;28;20036;-87
2022/12/02 04:16:50;;;;;;;0.20;0.10;;;;;;;;;;5019693;28;20565;-84
2022/12/02 04:19:16;;;;;;;0.20;0.10;;;;;;;;;;5022488;28;20045;-84
2022/12/02 04:21:42;;;;;;;0.20;0.10;;;;;;;;;;5020651;28;20028;-83
2022/12/02 04:24:08;;;;;;;0.20;0.10;;;;;;;;;;5057213;28;20075;-89
2022/12/02 04:26:34;;;;;;;0.20;0.10;;;;;;;;;;5053610;28;20040;-88
2022/12/02 04:29:00;;;;;;;0.55;0.55;;;;;;;;;;5044111;28;20047;-83
2022/12/02 04:31:26;;;;;;;0.20;0.10;;;;;;;;;;5024362;28;20029;-85
2022/12/02 04:33:52;;;;;;;0.20;0.10;;;;;;;;;;5047955;28;20121;-88
2022/12/02 04:36:18;;;;;;;0.20;0.10;;;;;;;;;;5019523;28;20470;-85
2022/12/02 04:38:44;;;;;;;0.20;0.10;;;;;;;;;;5024415;28;20041;-89
2022/12/02 04:41:10;;;;;;;0.30;0.30;;;;;;;;;;5040048;28;20037;-85
2022/12/02 04:43:36;;;;;;;0.20;0.10;;;;;;;;;;5045233;28;21262;-85
2022/12/02 04:46:02;;;;;;;0.20;0.10;;;;;;;;;;5032030;28;20060;-87
2022/12/02 04:48:28;;;;;;;0.20;0.10;;;;;;;;;;5025321;28;20041;-87
2022/12/02 04:50:54;;;;;;;0.20;0.10;;;;;;;;;;5021998;28;20364;-85
2022/12/02 04:53:20;;;;;;;0.20;0.10;;;;;;;;;;5019569;28;20501;-85
2022/12/02 04:55:46;;;;;;;0.20;0.10;;;;;;;;;;5020874;28;20033;-85
2022/12/02 04:58:13;;;;;;;0.20;0.10;;;;;;;;;;5016406;28;20041;-85
2022/12/02 05:00:39;;;;;;;0.20;0.10;;;;;;;;;;5015439;28;20178;-85
2022/12/02 05:03:05;;;;;;;0.28;0.28;;;;;;;;;;5035737;28;20496;-87
2022/12/02 05:05:31;;;;;;;0.20;0.10;;;;;;;;;;5024454;28;20040;-88
2022/12/02 05:07:57;;;;;;;0.20;0.10;;;;;;;;;;5023446;28;20091;-87
2022/12/02 05:10:23;;;;;;;0.20;0.10;;;;;;;;;;5040113;28;20051;-86
2022/12/02 05:12:49;;;;;;;0.20;0.10;;;;;;;;;;5037240;28;20430;-83
2022/12/02 05:15:15;;;;;;;2.60;0.20;;;;;;;;;;5032722;28;20040;-89
2022/12/02 05:17:41;;;;;;;0.20;0.10;;;;;;;;;;5015633;28;20128;-88
2022/12/02 05:20:07;;;;;;;0.63;0.40;;;;;;;;;;5014699;28;20514;-86
2022/12/02 05:22:34;;;;;;;0.35;0.35;;;;;;;;;;5034784;28;20100;-85
2022/12/02 05:25:00;;;;;;;0.28;0.20;;;;;;;;;;5004358;28;20045;-86
2022/12/02 05:27:26;;;;;;;0.20;0.10;;;;;;;;;;5032090;28;20036;-84
2022/12/02 05:29:52;;;;;;;0.20;0.10;;;;;;;;;;5012187;28;20062;-86
2022/12/02 05:32:18;;;;;;;0.20;0.10;;;;;;;;;;5019687;28;20063;-83
2022/12/02 05:34:44;;;;;;;0.20;0.10;;;;;;;;;;5010772;28;20159;-86
2022/12/02 05:37:10;;;;;;;0.20;0.10;;;;;;;;;;5019478;28;20045;-83
2022/12/02 05:39:39;;;;;;;0.20;0.10;;;;;;;;;;5009436;28;20037;-87
2022/12/02 05:42:07;;;;;;;0.20;0.20;;;;;;;;;;5024645;28;20047;-89
2022/12/02 05:44:34;;;;;;;0.20;0.10;;;;;;;;;;5036195;28;20041;-87
2022/12/02 05:47:06;;;;;;;0.63;0.63;;;;;;;;;;5029357;28;20049;-89
2022/12/02 05:49:36;;;;;;;0.20;0.10;;;;;;;;;;5020596;28;20032;-86
2022/12/02 05:52:06;;;;;;;1.13;1.13;;;;;;;;;;5044162;22;20059;-81
2022/12/02 05:54:32;;;;;;;0.20;0.10;;;;;;;;;;5035175;28;20036;-82
2022/12/02 05:57:01;;;;;;;0.25;0.17;;;;;;;;;;5046298;28;20044;-80
2022/12/02 05:59:29;;;;;;;0.20;0.20;;;;;;;;;;5069708;28;20743;-80
2022/12/02 06:01:56;;;;;;;0.20;0.10;;;;;;;;;;5044913;28;20047;-82
2022/12/02 06:04:24;;;;;;;0.20;0.10;;;;;;;;;;5046663;28;20036;-85
2022/12/02 06:06:52;;;;;;;0.55;0.47;;;;;;;;;;5061330;28;20683;-81
2022/12/02 06:09:20;;;;;;;0.20;0.10;;;;;;;;;;5054266;28;20044;-81
2022/12/02 06:11:47;;;;;;;0.32;0.20;;;;;;;;;;5054820;28;20051;-80
2022/12/02 06:14:17;;;;;;;0.22;0.15;;;;;;;;;;5071819;28;20109;-81
2022/12/02 06:16:45;;;;;;;0.20;0.10;;;;;;;;;;5067342;28;20032;-80
2022/12/02 06:19:33;;;;;;;0.22;0.13;;;;;;;;;;5048744;28;20029;-82
2022/12/02 06:22:00;;;;;;;0.55;0.50;;;;;;;;;;5057033;28;20096;-83
2022/12/02 06:24:32;;;;;;;0.47;0.35;;;;;;;;;;5045113;28;20040;-83
2022/12/02 06:26:59;;;;;;;0.20;0.10;;;;;;;;;;5051741;28;20206;-79
2022/12/02 06:29:26;;;;;;;0.20;0.15;;;;;;;;;;5041688;28;20056;-80
2022/12/02 06:31:53;;;;;;;0.20;0.20;;;;;;;;;;5056695;28;20075;-80
2022/12/02 06:34:19;;;;;;;0.20;0.10;;;;;;;;;;5059965;28;20044;-82
2022/12/02 06:36:47;;;;;;;0.20;0.10;;;;;;;;;;5035312;28;20794;-81
2022/12/02 06:39:21;;;;;;;0.20;0.13;;;;;;;;;;5035952;28;20040;-81
2022/12/02 06:41:47;;;;;;;0.52;0.47;;;;;;;;;;5039511;28;20031;-81
2022/12/02 06:47:23;;;;;;;0.20;0.17;;;;;;;;;;5055770;28;20498;-83
2022/12/02 06:49:49;;;;;;;0.20;0.10;;;;;;;;;;5055200;28;20040;-80
2022/12/02 06:52:24;;;;;;;0.20;0.10;;;;;;;;;;5056946;28;20074;-82
2022/12/02 06:54:52;;;;;;;0.32;0.32;;;;;;;;;;5057004;28;20039;-81
2022/12/02 06:57:19;;;;;;;0.20;0.10;;;;;;;;;;5042866;28;20044;-81
2022/12/02 06:59:48;;;;;;;0.20;0.10;;;;;;;;;;5059626;28;20626;-82
2022/12/02 07:02:29;;;;;;;0.20;0.10;;;;;;;;;;5035235;28;20039;-80
2022/12/02 07:04:56;;;;;;;0.20;0.10;;;;;;;;;;5056911;28;20987;-83
2022/12/02 07:07:23;;;;;;;0.20;0.10;;;;;;;;;;5075587;28;20044;-80
2022/12/02 07:09:55;;;;;;;0.20;0.20;;;;;;;;;;5073958;28;20033;-82
2022/12/02 07:12:23;;;;;;;0.20;0.20;;;;;;;;;;5058825;28;20047;-83
2022/12/02 07:14:49;;;;;;;0.20;0.10;;;;;;;;;;5065203;22;20040;-86
2022/12/02 11:20:36;;;;;;;0.20;0.10;;;;;;;;;;5183813;22;20044;-82
2022/12/02 11:26:16;;;;;;;0.30;0.30;;;;;;;;;;5079469;22;21035;-87
2022/12/02 11:29:43;;;;;;;0.20;0.10;;;;;;;;;;5054017;28;20098;-84
2022/12/02 11:41:28;;;;;;;0.20;0.20;;;;;;;;;;5047451;28;20342;-85
2022/12/02 11:44:08;;;;;;;0.40;0.40;;;;;;;;;;5025651;28;20065;-83
2022/12/02 11:46:48;;;;;;;0.20;0.10;;;;;;;;;;5010582;28;20040;-80
2022/12/02 11:49:22;;;;;;;0.20;0.10;;;;;;;;;;5039346;28;20080;-81
2022/12/02 11:51:48;;;;;;;0.20;0.10;;;;;;;;;;5058807;22;20045;-85
2022/12/02 11:54:16;;;;;;;0.20;0.20;;;;;;;;;;5010123;28;20176;-82
2022/12/02 11:56:46;;;;;;;0.20;0.10;;;;;;;;;;5047100;28;20038;-85
2022/12/02 11:59:28;;;;;;;0.50;0.50;;;;;;;;;;5044465;28;20041;-85
2022/12/02 12:02:14;;;;;;;0.38;0.38;;;;;;;;;;5014611;28;20969;-84
2022/12/02 12:04:43;;;;;;;0.90;0.90;;;;;;;;;;5015048;28;20043;-85
2022/12/02 12:07:13;;;;;;;1.80;1.23;;;;;;;;;;4996164;28;20041;-86
2022/12/02 12:09:39;;;;;;;0.75;0.75;;;;;;;;;;5014161;28;20134;-86
2022/12/02 12:12:20;;;;;;;0.22;0.22;;;;;;;;;;5012726;28;20041;-86
2022/12/02 12:15:04;;;;;;;0.68;0.68;;;;;;;;;;4998201;28;20065;-85
2022/12/02 12:17:42;;;;;;;0.20;0.10;;;;;;;;;;4999607;28;20132;-82
2022/12/02 12:20:14;;;;;;;0.25;0.13;;;;;;;;;;4999358;28;20051;-84
2022/12/02 12:22:40;;;;;;;0.20;0.10;;;;;;;;;;5003441;28;20037;-85
2022/12/02 12:25:25;;;;;;;0.20;0.10;;;;;;;;;;5013742;28;20042;-87
2022/12/02 12:27:51;;;;;;;0.68;0.68;;;;;;;;;;4997620;28;20497;-87
2022/12/02 12:30:17;;;;;;;0.50;0.50;;;;;;;;;;5015831;28;20034;-86
2022/12/02 12:32:43;;;;;;;0.22;0.22;;;;;;;;;;4996121;28;20082;-84
2022/12/02 12:35:09;;;;;;;0.20;0.20;;;;;;;;;;5004240;28;20037;-80
2022/12/02 12:37:35;;;;;;;0.22;0.22;;;;;;;;;;4996185;28;20041;-82
2022/12/02 12:40:01;;;;;;;0.20;0.17;;;;;;;;;;5014288;28;20515;-84
2022/12/02 12:42:30;;;;;;;0.30;0.30;;;;;;;;;;5013616;28;20043;-87
2022/12/02 12:44:56;;;;;;;0.40;0.38;;;;;;;;;;4995953;28;20052;-81
2022/12/02 12:47:22;;;;;;;0.63;0.63;;;;;;;;;;4997399;28;20038;-85
2022/12/02 12:49:48;;;;;;;0.45;0.45;;;;;;;;;;4994380;28;20452;-85
2022/12/02 12:52:14;;;;;;;0.30;0.22;;;;;;;;;;4989062;28;20056;-83
2022/12/02 12:54:40;;;;;;;0.40;0.40;;;;;;;;;;4997428;28;20072;-86
2022/12/02 12:57:06;;;;;;;1.30;1.30;;;;;;;;;;5009174;28;20037;-83
2022/12/02 12:59:32;;;;;;;0.20;0.10;;;;;;;;;;4994859;28;20087;-84
2022/12/02 13:01:58;;;;;;;0.25;0.25;;;;;;;;;;4995528;28;20125;-82
2022/12/02 13:04:24;;;;;;;0.20;0.10;;;;;;;;;;4991018;28;20128;-85
2022/12/02 13:06:50;;;;;;;0.80;0.80;;;;;;;;;;4991047;28;20046;-85
2022/12/02 13:09:16;;;;;;;0.20;0.10;;;;;;;;;;4991234;28;20124;-85
2022/12/02 13:11:42;;;;;;;0.65;0.65;;;;;;;;;;5009395;28;20491;-84
2022/12/02 13:14:08;;;;;;;0.20;0.20;;;;;;;;;;5010554;28;20088;-85
2022/12/02 13:16:35;;;;;;;0.25;0.25;;;;;;;;;;4997279;28;20034;-83
2022/12/02 13:19:01;;;;;;;0.20;0.10;;;;;;;;;;4997092;28;20048;-85
2022/12/02 13:21:27;;;;;;;0.28;0.28;;;;;;;;;;5006073;28;20052;-84
2022/12/02 13:23:54;;;;;;;0.45;0.45;;;;;;;;;;4998557;28;20463;-84
2022/12/02 13:26:20;;;;;;;0.20;0.10;;;;;;;;;;5017596;28;20046;-82
2022/12/02 13:28:51;;;;;;;0.20;0.10;;;;;;;;;;4998608;28;20044;-86
2022/12/02 13:31:20;;;;;;;0.20;0.10;;;;;;;;;;5018070;28;20169;-86
2022/12/02 13:33:46;;;;;;;0.20;0.10;;;;;;;;;;4997361;28;20107;-82
2022/12/02 13:36:12;;;;;;;0.20;0.20;;;;;;;;;;4996456;28;20121;-82
2022/12/02 13:38:38;;;;;;;0.20;0.10;;;;;;;;;;5007380;28;20041;-84
2022/12/02 13:41:04;;;;;;;0.20;0.10;;;;;;;;;;4994938;28;20056;-87
2022/12/02 13:43:30;;;;;;;0.20;0.10;;;;;;;;;;4998563;28;20041;-85
2022/12/02 13:45:56;;;;;;;0.20;0.20;;;;;;;;;;4991822;28;20512;-83
2022/12/02 13:48:22;;;;;;;0.55;0.55;;;;;;;;;;5008411;28;20113;-85
2022/12/02 13:50:48;;;;;;;0.20;0.10;;;;;;;;;;5008245;28;20512;-85
2022/12/02 13:53:14;;;;;;;0.68;0.50;;;;;;;;;;4995275;28;20075;-83
2022/12/02 13:55:40;;;;;;;0.20;0.10;;;;;;;;;;4991469;28;20176;-86
2022/12/02 13:58:06;;;;;;;0.30;0.30;;;;;;;;;;5010579;28;20045;-85
2022/12/02 14:00:35;;;;;;;0.20;0.10;;;;;;;;;;4993941;28;21465;-84
2022/12/02 14:03:03;;;;;;;1.40;1.30;;;;;;;;;;4998530;28;20044;-86
2022/12/02 14:05:32;;;;;;;0.20;0.10;;;;;;;;;;5011300;28;20034;-84
2022/12/02 14:07:58;;;;;;;0.20;0.15;;;;;;;;;;4988643;28;20046;-83
2022/12/02 14:10:24;;;;;;;0.20;0.15;;;;;;;;;;5002976;28;20041;-79
2022/12/02 14:12:51;;;;;;;0.20;0.10;;;;;;;;;;4999770;28;20512;-84
2022/12/02 14:15:18;;;;;;;0.20;0.20;;;;;;;;;;4992557;28;20523;-85
2022/12/02 14:17:44;;;;;;;0.20;0.10;;;;;;;;;;4996297;28;20164;-84
2022/12/02 14:20:16;;;;;;;0.20;0.10;;;;;;;;;;5009494;28;20076;-87
2022/12/02 14:22:42;;;;;;;0.25;0.25;;;;;;;;;;4993668;28;20171;-85
2022/12/02 14:25:08;;;;;;;0.20;0.10;;;;;;;;;;5014556;28;20148;-83
2022/12/02 14:27:34;;;;;;;0.50;0.47;;;;;;;;;;5000243;28;20041;-88
2022/12/02 14:30:01;;;;;;;0.20;0.10;;;;;;;;;;5012577;28;20030;-86
2022/12/02 14:32:27;;;;;;;0.55;0.55;;;;;;;;;;5014577;28;20060;-83
2022/12/02 14:34:55;;;;;;;0.20;0.10;;;;;;;;;;5006643;28;20053;-86
2022/12/02 14:37:24;;;;;;;0.20;0.20;;;;;;;;;;5007652;28;20092;-85
2022/12/02 14:39:50;;;;;;;0.57;0.57;;;;;;;;;;4991295;28;20510;-87
2022/12/02 14:42:16;;;;;;;0.35;0.30;;;;;;;;;;4995638;28;20068;-85
2022/12/02 14:44:42;;;;;;;1.27;1.20;;;;;;;;;;5006254;28;20045;-85
2022/12/02 14:47:08;;;;;;;0.52;0.52;;;;;;;;;;4995841;28;20042;-85
2022/12/02 14:49:34;;;;;;;0.68;0.50;;;;;;;;;;4988765;28;20139;-85
2022/12/02 14:52:00;;;;;;;0.20;0.10;;;;;;;;;;5010412;28;20038;-88
2022/12/02 14:54:26;;;;;;;0.30;0.30;;;;;;;;;;5003318;28;20151;-86
2022/12/02 14:56:52;;;;;;;0.38;0.38;;;;;;;;;;5004383;28;20611;-89
2022/12/02 14:59:18;;;;;;;0.20;0.10;;;;;;;;;;5008317;28;20442;-89
2022/12/02 15:01:44;;;;;;;0.52;0.52;;;;;;;;;;5024998;28;20038;-86
2022/12/02 15:04:11;;;;;;;0.20;0.10;;;;;;;;;;4989246;28;20035;-86
2022/12/02 15:06:40;;;;;;;0.20;0.10;;;;;;;;;;5012681;28;20124;-87
2022/12/02 15:09:06;;;;;;;0.20;0.10;;;;;;;;;;4995792;28;20075;-88
2022/12/02 15:11:32;;;;;;;0.75;0.63;;;;;;;;;;5014910;28;20081;-84
2022/12/02 15:13:58;;;;;;;0.30;0.30;;;;;;;;;;5014045;28;20041;-86
2022/12/02 15:16:30;;;;;;;0.40;0.40;;;;;;;;;;5001146;28;20046;-90
2022/12/02 15:18:56;;;;;;;0.20;0.10;;;;;;;;;;5016722;28;20041;-89
2022/12/02 15:21:22;;;;;;;0.20;0.10;;;;;;;;;;5022682;28;20040;-83
2022/12/02 15:23:49;;;;;;;0.38;0.38;;;;;;;;;;5014716;28;20359;-85
2022/12/02 15:26:17;;;;;;;0.20;0.10;;;;;;;;;;5019354;28;20164;-85
2022/12/02 15:28:43;;;;;;;0.45;0.30;;;;;;;;;;5016129;28;20047;-84
2022/12/02 15:31:09;;;;;;;0.20;0.20;;;;;;;;;;5014223;28;20041;-84
2022/12/02 15:33:35;;;;;;;0.20;0.10;;;;;;;;;;5010076;28;20077;-82
2022/12/02 15:36:02;;;;;;;0.20;0.10;;;;;;;;;;5008404;28;20041;-87
2022/12/02 15:38:28;;;;;;;0.45;0.40;;;;;;;;;;4998937;28;20080;-83
2022/12/02 15:40:54;;;;;;;0.20;0.20;;;;;;;;;;5009898;28;20038;-84
2022/12/02 15:43:20;;;;;;;0.20;0.10;;;;;;;;;;5013065;28;20038;-84
2022/12/02 15:45:46;;;;;;;0.40;0.40;;;;;;;;;;5014310;28;20041;-83
2022/12/02 15:48:12;;;;;;;0.35;0.35;;;;;;;;;;5015375;28;20047;-86
2022/12/02 15:50:38;;;;;;;0.20;0.10;;;;;;;;;;5002581;28;20038;-86
2022/12/02 15:53:04;;;;;;;0.20;0.10;;;;;;;;;;5018721;28;20052;-86
2022/12/02 15:55:30;;;;;;;0.20;0.10;;;;;;;;;;5023912;28;20041;-87
2022/12/02 15:57:56;;;;;;;0.20;0.10;;;;;;;;;;5005469;28;20044;-85
2022/12/02 16:00:22;;;;;;;0.20;0.10;;;;;;;;;;5021246;28;20038;-84
2022/12/02 16:02:48;;;;;;;0.55;0.55;;;;;;;;;;5023067;28;20041;-85
2022/12/02 16:05:14;;;;;;;0.20;0.10;;;;;;;;;;5021414;28;20047;-85
2022/12/02 16:07:40;;;;;;;0.40;0.40;;;;;;;;;;5021207;28;20037;-85
2022/12/02 16:10:06;;;;;;;0.52;0.52;;;;;;;;;;5029353;28;20074;-86
2022/12/02 16:12:32;;;;;;;0.20;0.10;;;;;;;;;;5000481;28;20041;-86
2022/12/02 16:14:58;;;;;;;0.95;0.38;;;;;;;;;;5009117;28;20045;-83
2022/12/02 16:17:27;;;;;;;0.40;0.40;;;;;;;;;;5005966;28;20049;-85
2022/12/02 16:19:53;;;;;;;0.20;0.13;;;;;;;;;;5017267;28;20526;-84
2022/12/02 16:22:19;;;;;;;0.50;0.50;;;;;;;;;;5014675;28;20476;-87
2022/12/02 16:24:45;;;;;;;0.20;0.20;;;;;;;;;;4998605;28;20069;-86
2022/12/02 16:27:11;;;;;;;0.20;0.10;;;;;;;;;;5004582;28;20129;-84
2022/12/02 16:29:37;;;;;;;0.20;0.10;;;;;;;;;;5002651;28;20038;-84
2022/12/02 16:32:03;;;;;;;0.20;0.10;;;;;;;;;;5001650;28;20045;-87
2022/12/02 16:34:29;;;;;;;0.20;0.10;;;;;;;;;;5015460;28;20584;-86
2022/12/02 16:36:55;;;;;;;0.55;0.43;;;;;;;;;;5013637;28;20247;-83
2022/12/02 16:39:21;;;;;;;0.20;0.10;;;;;;;;;;5018760;28;20429;-85
2022/12/02 16:41:47;;;;;;;0.30;0.30;;;;;;;;;;5018975;28;20041;-82
2022/12/02 16:44:13;;;;;;;0.20;0.10;;;;;;;;;;5012383;28;20037;-85
2022/12/02 16:46:40;;;;;;;0.20;0.10;;;;;;;;;;5004886;28;20492;-84
2022/12/02 16:49:11;;;;;;;0.20;0.10;;;;;;;;;;4997507;28;20092;-83
2022/12/02 16:51:41;;;;;;;0.20;0.10;;;;;;;;;;4990474;28;20185;-91
2022/12/02 16:54:09;;;;;;;0.57;0.57;;;;;;;;;;4994480;28;20052;-84
2022/12/02 16:56:35;;;;;;;0.20;0.10;;;;;;;;;;5006704;28;20052;-84
2022/12/02 16:59:01;;;;;;;1.13;1.10;;;;;;;;;;5012482;28;20492;-85
2022/12/02 17:01:28;;;;;;;1.27;0.75;;;;;;;;;;4999678;28;20038;-84
2022/12/02 17:03:54;;;;;;;0.20;0.10;;;;;;;;;;5009810;28;20053;-86
2022/12/02 17:06:20;;;;;;;0.20;0.10;;;;;;;;;;5010307;28;20046;-85
2022/12/02 17:08:55;;;;;;;1.58;1.48;;;;;;;;;;4996655;28;20061;-87
2022/12/02 17:11:21;;;;;;;0.68;0.68;;;;;;;;;;4999286;28;20133;-86
2022/12/02 17:13:47;;;;;;;0.20;0.10;;;;;;;;;;4999246;28;20053;-84
2022/12/02 17:16:13;;;;;;;0.50;0.50;;;;;;;;;;5008694;28;20420;-80
2022/12/02 17:18:39;;;;;;;1.02;0.93;;;;;;;;;;5017835;28;20043;-85
2022/12/02 17:21:08;;;;;;;0.20;0.10;;;;;;;;;;5007372;28;20728;-83
2022/12/02 17:23:34;;;;;;;0.65;0.65;;;;;;;;;;5010466;28;20038;-85
2022/12/02 17:26:00;;;;;;;1.00;1.00;;;;;;;;;;5009091;28;20111;-83
2022/12/02 17:28:26;;;;;;;0.28;0.25;;;;;;;;;;5017904;28;20040;-87
2022/12/02 17:30:52;;;;;;;0.28;0.17;;;;;;;;;;5007641;28;20226;-88
2022/12/02 17:33:18;;;;;;;0.32;0.32;;;;;;;;;;5015228;28;20099;-86
2022/12/02 17:35:44;;;;;;;0.20;0.20;;;;;;;;;;5016771;28;20478;-85
2022/12/02 17:38:10;;;;;;;0.35;0.35;;;;;;;;;;5009642;28;20048;-84
2022/12/02 17:40:36;;;;;;;0.20;0.10;;;;;;;;;;5014003;28;20034;-87
2022/12/02 17:43:02;;;;;;;0.40;0.32;;;;;;;;;;5018051;28;22201;-86
2022/12/02 17:45:28;;;;;;;0.20;0.10;;;;;;;;;;4996904;28;20519;-85
2022/12/02 17:47:54;;;;;;;0.20;0.10;;;;;;;;;;5005921;28;20045;-87
2022/12/02 17:50:20;;;;;;;0.20;0.17;;;;;;;;;;5005403;28;20053;-83
2022/12/02 17:52:46;;;;;;;0.20;0.10;;;;;;;;;;5014644;22;20044;-80
2022/12/02 17:55:13;;;;;;;0.20;0.15;;;;;;;;;;5000157;28;20767;-80
2022/12/02 17:57:41;;;;;;;0.20;0.10;;;;;;;;;;5037532;28;20449;-83
2022/12/02 18:00:08;;;;;;;0.40;0.40;;;;;;;;;;5014305;28;20097;-80
2022/12/02 18:02:34;;;;;;;0.20;0.10;;;;;;;;;;5050152;28;20036;-83
2022/12/02 18:05:01;;;;;;;0.70;0.70;;;;;;;;;;5031578;28;20040;-82
2022/12/02 18:07:29;;;;;;;0.20;0.10;;;;;;;;;;5020775;28;20075;-84
2022/12/02 18:09:55;;;;;;;0.20;0.10;;;;;;;;;;5011649;28;20134;-82
2022/12/02 18:12:22;;;;;;;0.20;0.10;;;;;;;;;;5031749;28;20083;-80
2022/12/02 18:14:48;;;;;;;0.20;0.20;;;;;;;;;;5035125;28;20115;-82
2022/12/02 18:17:15;;;;;;;0.20;0.10;;;;;;;;;;5017248;28;21029;-82
2022/12/02 18:19:41;;;;;;;0.20;0.20;;;;;;;;;;5035002;28;20040;-80
2022/12/02 18:22:07;;;;;;;0.20;0.10;;;;;;;;;;5046980;28;20607;-81
2022/12/02 18:24:33;;;;;;;1.95;1.00;;;;;;;;;;5011970;28;20064;-79
2022/12/02 18:26:59;;;;;;;0.20;0.10;;;;;;;;;;5032941;28;20068;-80
2022/12/02 18:29:25;;;;;;;0.25;0.20;;;;;;;;;;5051570;28;20036;-80
2022/12/02 18:31:51;;;;;;;0.20;0.10;;;;;;;;;;5018730;28;20127;-80
2022/12/02 18:34:17;;;;;;;0.20;0.10;;;;;;;;;;5020439;28;20044;-80
2022/12/02 18:36:43;;;;;;;0.22;0.15;;;;;;;;;;5028988;28;20035;-82
2022/12/02 18:39:10;;;;;;;1.17;1.08;;;;;;;;;;5058794;28;20052;-79
2022/12/02 18:41:36;;;;;;;0.20;0.10;;;;;;;;;;5038186;28;20039;-81
2022/12/02 18:44:02;;;;;;;0.20;0.20;;;;;;;;;;5031029;28;20029;-79
2022/12/02 18:46:28;;;;;;;1.60;1.08;;;;;;;;;;5029145;28;20040;-82
2022/12/02 18:48:54;;;;;;;0.20;0.10;;;;;;;;;;5017575;28;20560;-82
2022/12/02 18:51:20;;;;;;;0.52;0.52;;;;;;;;;;5028244;28;20044;-77
2022/12/02 18:53:46;;;;;;;1.42;1.33;;;;;;;;;;5052681;28;20070;-80
2022/12/02 18:56:12;;;;;;;0.32;0.20;;;;;;;;;;5057167;28;20044;-80
2022/12/02 18:58:38;;;;;;;0.38;0.38;;;;;;;;;;5055669;28;20180;-79
2022/12/02 19:01:04;;;;;;;0.20;0.10;;;;;;;;;;5038032;28;20045;-80
2022/12/02 19:03:30;;;;;;;0.38;0.38;;;;;;;;;;5040219;28;20040;-79
2022/12/02 19:05:56;;;;;;;0.20;0.10;;;;;;;;;;5039144;28;20041;-81